sensor_id;sensor_type;location;lat;lon;timestamp;temperature;humidity
68011;DHT22;54794;48.348;7.878;2022-10-31T14:50:17;18.70;80.00
68011;DHT22;54794;48.348;7.878;2022-10-31T14:52:55;18.80;79.60
68011;DHT22;54794;48.348;7.878;2022-10-31T14:55:24;19.10;79.70
68011;DHT22;54794;48.348;7.878;2022-10-31T14:57:57;19.30;79.30
68011;DHT22;54794;48.348;7.878;2022-10-31T15:00:29;19.40;78.70
68011;DHT22;54794;48.348;7.878;2022-10-31T15:03:14;19.60;78.50
68011;DHT22;54794;48.348;7.878;2022-10-31T15:05:53;19.80;77.40
68011;DHT22;54794;48.348;7.878;2022-10-31T15:11:14;20.00;76.80
68011;DHT22;54794;48.348;7.878;2022-10-31T15:13:54;20.00;76.20
68011;DHT22;54794;48.348;7.878;2022-10-31T15:16:24;20.10;75.80
68011;DHT22;54794;48.348;7.878;2022-10-31T15:18:58;20.10;76.30
68011;DHT22;54794;48.348;7.878;2022-10-31T15:21:28;20.20;76.20
68011;DHT22;54794;48.348;7.878;2022-10-31T15:23:57;20.20;75.90
68011;DHT22;54794;48.348;7.878;2022-10-31T15:26:37;20.20;75.90
68011;DHT22;54794;48.348;7.878;2022-10-31T15:29:15;20.20;75.50
68011;DHT22;54794;48.348;7.878;2022-10-31T15:32:00;20.20;75.10
68011;DHT22;54794;48.348;7.878;2022-10-31T15:34:43;20.20;74.90
68011;DHT22;54794;48.348;7.878;2022-10-31T15:37:12;20.20;75.30
68011;DHT22;54794;48.348;7.878;2022-10-31T15:39:42;20.20;75.20
68011;DHT22;54794;48.348;7.878;2022-10-31T15:42:39;20.10;75.20
68011;DHT22;54794;48.348;7.878;2022-10-31T15:47:37;20.10;74.90
68011;DHT22;54794;48.348;7.878;2022-10-31T15:50:19;20.10;75.10
68011;DHT22;54794;48.348;7.878;2022-10-31T15:52:55;20.10;74.20
68011;DHT22;54794;48.348;7.878;2022-10-31T15:55:24;20.10;74.90
68011;DHT22;54794;48.348;7.878;2022-10-31T15:57:59;20.10;74.70
68011;DHT22;54794;48.348;7.878;2022-10-31T16:00:33;20.10;74.60
68011;DHT22;54794;48.348;7.878;2022-10-31T16:05:53;20.00;74.20
68011;DHT22;54794;48.348;7.878;2022-10-31T16:13:36;19.90;74.00
68011;DHT22;54794;48.348;7.878;2022-10-31T16:16:13;19.90;74.30
68011;DHT22;54794;48.348;7.878;2022-10-31T16:19:04;19.80;73.80
68011;DHT22;54794;48.348;7.878;2022-10-31T16:21:38;19.80;74.10
68011;DHT22;54794;48.348;7.878;2022-10-31T16:26:51;19.70;73.60
68011;DHT22;54794;48.348;7.878;2022-10-31T16:29:41;19.70;73.90
68011;DHT22;54794;48.348;7.878;2022-10-31T16:32:25;19.60;73.50
68011;DHT22;54794;48.348;7.878;2022-10-31T16:37:40;19.50;73.50
68011;DHT22;54794;48.348;7.878;2022-10-31T16:40:13;19.50;73.80
68011;DHT22;54794;48.348;7.878;2022-10-31T16:43:00;19.40;73.60
68011;DHT22;54794;48.348;7.878;2022-10-31T16:45:29;19.40;73.90
68011;DHT22;54794;48.348;7.878;2022-10-31T16:48:05;19.40;73.40
68011;DHT22;54794;48.348;7.878;2022-10-31T16:50:47;19.30;73.40
68011;DHT22;54794;48.348;7.878;2022-10-31T16:53:46;19.30;73.30
68011;DHT22;54794;48.348;7.878;2022-10-31T17:00:30;19.10;72.90
68011;DHT22;54794;48.348;7.878;2022-10-31T17:02:57;19.00;73.60
68011;DHT22;54794;48.348;7.878;2022-10-31T17:05:24;18.90;73.80
68011;DHT22;54794;48.348;7.878;2022-10-31T17:07:59;18.90;74.00
68011;DHT22;54794;48.348;7.878;2022-10-31T17:10:27;18.90;74.20
68011;DHT22;54794;48.348;7.878;2022-10-31T17:12:54;18.80;74.20
68011;DHT22;54794;48.348;7.878;2022-10-31T17:15:25;18.80;74.30
68011;DHT22;54794;48.348;7.878;2022-10-31T17:17:54;18.80;74.20
68011;DHT22;54794;48.348;7.878;2022-10-31T17:20:29;18.80;74.20
68011;DHT22;54794;48.348;7.878;2022-10-31T17:22:58;18.80;73.90
68011;DHT22;54794;48.348;7.878;2022-10-31T17:25:28;18.80;74.20
68011;DHT22;54794;48.348;7.878;2022-10-31T17:27:57;18.80;74.60
68011;DHT22;54794;48.348;7.878;2022-10-31T17:30:25;18.80;74.10
68011;DHT22;54794;48.348;7.878;2022-10-31T17:32:51;18.70;74.00
68011;DHT22;54794;48.348;7.878;2022-10-31T17:35:19;18.70;74.00
68011;DHT22;54794;48.348;7.878;2022-10-31T17:37:47;18.70;74.10
68011;DHT22;54794;48.348;7.878;2022-10-31T17:40:17;18.70;74.00
68011;DHT22;54794;48.348;7.878;2022-10-31T17:42:55;18.70;73.90
68011;DHT22;54794;48.348;7.878;2022-10-31T17:45:25;18.70;73.60
68011;DHT22;54794;48.348;7.878;2022-10-31T17:47:53;18.60;73.90
68011;DHT22;54794;48.348;7.878;2022-10-31T17:50:22;18.60;73.90
68011;DHT22;54794;48.348;7.878;2022-10-31T17:52:50;18.60;73.80
68011;DHT22;54794;48.348;7.878;2022-10-31T17:55:18;18.60;73.90
68011;DHT22;54794;48.348;7.878;2022-10-31T17:57:45;18.50;73.90
68011;DHT22;54794;48.348;7.878;2022-10-31T18:00:15;18.50;74.00
68011;DHT22;54794;48.348;7.878;2022-10-31T18:02:44;18.50;74.00
68011;DHT22;54794;48.348;7.878;2022-10-31T18:05:12;18.40;74.00
68011;DHT22;54794;48.348;7.878;2022-10-31T18:07:39;18.40;74.00
68011;DHT22;54794;48.348;7.878;2022-10-31T18:10:06;18.40;74.00
68011;DHT22;54794;48.348;7.878;2022-10-31T18:12:37;18.30;74.10
68011;DHT22;54794;48.348;7.878;2022-10-31T18:15:04;18.30;73.90
68011;DHT22;54794;48.348;7.878;2022-10-31T18:17:32;18.30;74.10
68011;DHT22;54794;48.348;7.878;2022-10-31T18:20:02;18.30;74.00
68011;DHT22;54794;48.348;7.878;2022-10-31T18:22:30;18.20;74.00
68011;DHT22;54794;48.348;7.878;2022-10-31T18:24:57;18.20;74.00
68011;DHT22;54794;48.348;7.878;2022-10-31T18:27:28;18.20;74.10
68011;DHT22;54794;48.348;7.878;2022-10-31T18:29:54;18.10;74.10
68011;DHT22;54794;48.348;7.878;2022-10-31T18:32:21;18.10;74.10
68011;DHT22;54794;48.348;7.878;2022-10-31T18:34:49;18.10;74.20
68011;DHT22;54794;48.348;7.878;2022-10-31T18:37:15;18.10;74.20
68011;DHT22;54794;48.348;7.878;2022-10-31T18:39:42;18.10;74.20
68011;DHT22;54794;48.348;7.878;2022-10-31T18:42:09;18.10;74.20
68011;DHT22;54794;48.348;7.878;2022-10-31T18:44:36;18.10;74.20
68011;DHT22;54794;48.348;7.878;2022-10-31T18:47:03;18.10;74.60
68011;DHT22;54794;48.348;7.878;2022-10-31T18:49:30;18.00;74.00
68011;DHT22;54794;48.348;7.878;2022-10-31T18:51:58;18.00;74.10
68011;DHT22;54794;48.348;7.878;2022-10-31T18:54:26;17.90;74.10
68011;DHT22;54794;48.348;7.878;2022-10-31T18:56:52;17.90;74.00
68011;DHT22;54794;48.348;7.878;2022-10-31T18:59:21;17.90;74.10
68011;DHT22;54794;48.348;7.878;2022-10-31T19:01:48;17.90;74.10
68011;DHT22;54794;48.348;7.878;2022-10-31T19:04:15;17.80;74.00
68011;DHT22;54794;48.348;7.878;2022-10-31T19:06:42;17.80;74.00
68011;DHT22;54794;48.348;7.878;2022-10-31T19:09:09;17.80;74.00
68011;DHT22;54794;48.348;7.878;2022-10-31T19:11:36;17.70;73.90
68011;DHT22;54794;48.348;7.878;2022-10-31T19:14:04;17.70;73.90
68011;DHT22;54794;48.348;7.878;2022-10-31T19:16:34;17.70;73.90
68011;DHT22;54794;48.348;7.878;2022-10-31T19:19:01;17.60;74.00
68011;DHT22;54794;48.348;7.878;2022-10-31T19:21:28;17.60;74.10
68011;DHT22;54794;48.348;7.878;2022-10-31T19:23:58;17.60;74.10
68011;DHT22;54794;48.348;7.878;2022-10-31T19:26:26;17.60;74.10
68011;DHT22;54794;48.348;7.878;2022-10-31T19:28:55;17.50;74.00
68011;DHT22;54794;48.348;7.878;2022-10-31T19:31:22;17.50;74.10
68011;DHT22;54794;48.348;7.878;2022-10-31T19:33:50;17.50;74.20
68011;DHT22;54794;48.348;7.878;2022-10-31T19:36:18;17.50;74.20
68011;DHT22;54794;48.348;7.878;2022-10-31T19:38:47;17.50;74.20
68011;DHT22;54794;48.348;7.878;2022-10-31T19:41:19;17.50;74.30
68011;DHT22;54794;48.348;7.878;2022-10-31T19:43:48;17.40;74.20
68011;DHT22;54794;48.348;7.878;2022-10-31T19:46:15;17.40;74.20
68011;DHT22;54794;48.348;7.878;2022-10-31T19:48:59;17.40;74.10
68011;DHT22;54794;48.348;7.878;2022-10-31T19:51:26;17.40;74.00
68011;DHT22;54794;48.348;7.878;2022-10-31T19:53:53;17.40;74.10
68011;DHT22;54794;48.348;7.878;2022-10-31T19:56:22;17.40;74.70
68011;DHT22;54794;48.348;7.878;2022-10-31T19:58:50;17.40;74.20
68011;DHT22;54794;48.348;7.878;2022-10-31T20:01:20;17.30;74.20
68011;DHT22;54794;48.348;7.878;2022-10-31T20:03:48;17.30;74.10
68011;DHT22;54794;48.348;7.878;2022-10-31T20:06:31;17.30;74.10
68011;DHT22;54794;48.348;7.878;2022-10-31T20:09:05;17.20;74.10
68011;DHT22;54794;48.348;7.878;2022-10-31T20:11:36;17.30;74.30
68011;DHT22;54794;48.348;7.878;2022-10-31T20:14:04;17.20;74.30
68011;DHT22;54794;48.348;7.878;2022-10-31T20:16:33;17.20;74.40
68011;DHT22;54794;48.348;7.878;2022-10-31T20:19:00;17.20;74.30
68011;DHT22;54794;48.348;7.878;2022-10-31T20:21:29;17.20;74.30
68011;DHT22;54794;48.348;7.878;2022-10-31T20:23:59;17.20;74.30
68011;DHT22;54794;48.348;7.878;2022-10-31T20:26:29;17.20;74.40
68011;DHT22;54794;48.348;7.878;2022-10-31T20:28:59;17.20;74.40
68011;DHT22;54794;48.348;7.878;2022-10-31T20:31:29;17.10;74.40
68011;DHT22;54794;48.348;7.878;2022-10-31T20:33:57;17.10;74.60
68011;DHT22;54794;48.348;7.878;2022-10-31T20:36:25;17.10;74.30
68011;DHT22;54794;48.348;7.878;2022-10-31T20:38:54;17.10;74.30
68011;DHT22;54794;48.348;7.878;2022-10-31T20:41:21;17.10;74.30
68011;DHT22;54794;48.348;7.878;2022-10-31T20:43:49;17.00;74.20
68011;DHT22;54794;48.348;7.878;2022-10-31T20:46:21;17.00;74.20
68011;DHT22;54794;48.348;7.878;2022-10-31T20:48:50;17.00;74.20
68011;DHT22;54794;48.348;7.878;2022-10-31T20:51:21;17.00;74.20
68011;DHT22;54794;48.348;7.878;2022-10-31T20:53:58;16.90;74.30
68011;DHT22;54794;48.348;7.878;2022-10-31T20:56:27;16.90;74.40
68011;DHT22;54794;48.348;7.878;2022-10-31T20:58:55;16.90;74.40
68011;DHT22;54794;48.348;7.878;2022-10-31T21:01:25;16.90;74.40
68011;DHT22;54794;48.348;7.878;2022-10-31T21:03:55;16.90;74.50
68011;DHT22;54794;48.348;7.878;2022-10-31T21:06:24;16.80;74.60
68011;DHT22;54794;48.348;7.878;2022-10-31T21:08:51;16.90;74.80
68011;DHT22;54794;48.348;7.878;2022-10-31T21:11:21;16.90;74.70
68011;DHT22;54794;48.348;7.878;2022-10-31T21:13:50;16.90;74.80
68011;DHT22;54794;48.348;7.878;2022-10-31T21:16:20;16.90;74.80
68011;DHT22;54794;48.348;7.878;2022-10-31T21:18:49;16.90;74.80
68011;DHT22;54794;48.348;7.878;2022-10-31T21:21:20;16.90;74.60
68011;DHT22;54794;48.348;7.878;2022-10-31T21:24:04;17.00;74.60
68011;DHT22;54794;48.348;7.878;2022-10-31T21:26:36;17.00;74.40
68011;DHT22;54794;48.348;7.878;2022-10-31T21:29:05;16.90;74.30
68011;DHT22;54794;48.348;7.878;2022-10-31T21:31:34;16.90;74.40
68011;DHT22;54794;48.348;7.878;2022-10-31T21:34:03;16.90;74.30
68011;DHT22;54794;48.348;7.878;2022-10-31T21:36:30;16.90;74.50
68011;DHT22;54794;48.348;7.878;2022-10-31T21:38:57;16.90;74.40
68011;DHT22;54794;48.348;7.878;2022-10-31T21:41:24;16.80;74.40
68011;DHT22;54794;48.348;7.878;2022-10-31T21:43:52;16.80;74.40
68011;DHT22;54794;48.348;7.878;2022-10-31T21:46:23;16.90;74.40
68011;DHT22;54794;48.348;7.878;2022-10-31T21:48:52;16.80;74.40
68011;DHT22;54794;48.348;7.878;2022-10-31T21:51:29;16.80;74.50
68011;DHT22;54794;48.348;7.878;2022-10-31T21:53:58;16.80;74.60
68011;DHT22;54794;48.348;7.878;2022-10-31T21:56:44;16.90;74.60
68011;DHT22;54794;48.348;7.878;2022-10-31T21:59:11;16.80;74.60
68011;DHT22;54794;48.348;7.878;2022-10-31T22:01:39;16.80;74.40
68011;DHT22;54794;48.348;7.878;2022-10-31T22:04:06;16.80;74.40
68011;DHT22;54794;48.348;7.878;2022-10-31T22:06:34;16.80;74.30
68011;DHT22;54794;48.348;7.878;2022-10-31T22:09:03;16.80;74.30
68011;DHT22;54794;48.348;7.878;2022-10-31T22:11:32;16.80;74.40
68011;DHT22;54794;48.348;7.878;2022-10-31T22:14:00;16.80;74.50
68011;DHT22;54794;48.348;7.878;2022-10-31T22:16:28;16.80;74.40
68011;DHT22;54794;48.348;7.878;2022-10-31T22:18:57;16.80;74.40
68011;DHT22;54794;48.348;7.878;2022-10-31T22:21:27;16.80;74.40
68011;DHT22;54794;48.348;7.878;2022-10-31T22:23:58;16.70;74.50
68011;DHT22;54794;48.348;7.878;2022-10-31T22:26:30;16.70;74.50
68011;DHT22;54794;48.348;7.878;2022-10-31T22:28:58;16.80;74.50
68011;DHT22;54794;48.348;7.878;2022-10-31T22:31:28;16.70;74.50
68011;DHT22;54794;48.348;7.878;2022-10-31T22:33:56;16.70;74.40
68011;DHT22;54794;48.348;7.878;2022-10-31T22:36:26;16.70;74.30
68011;DHT22;54794;48.348;7.878;2022-10-31T22:38:55;16.70;74.20
68011;DHT22;54794;48.348;7.878;2022-10-31T22:41:24;16.70;74.20
68011;DHT22;54794;48.348;7.878;2022-10-31T22:43:54;16.60;74.20
68011;DHT22;54794;48.348;7.878;2022-10-31T22:46:24;16.60;74.20
68011;DHT22;54794;48.348;7.878;2022-10-31T22:48:55;16.50;74.20
68011;DHT22;54794;48.348;7.878;2022-10-31T22:51:29;16.50;74.30
68011;DHT22;54794;48.348;7.878;2022-10-31T22:53:58;16.50;74.50
68011;DHT22;54794;48.348;7.878;2022-10-31T22:56:28;16.50;74.60
68011;DHT22;54794;48.348;7.878;2022-10-31T22:58:58;16.50;74.60
68011;DHT22;54794;48.348;7.878;2022-10-31T23:01:29;16.50;74.50
68011;DHT22;54794;48.348;7.878;2022-10-31T23:03:58;16.50;74.50
68011;DHT22;54794;48.348;7.878;2022-10-31T23:06:29;16.50;74.30
68011;DHT22;54794;48.348;7.878;2022-10-31T23:08:59;16.50;74.30
68011;DHT22;54794;48.348;7.878;2022-10-31T23:11:30;16.40;74.30
68011;DHT22;54794;48.348;7.878;2022-10-31T23:14:03;16.40;74.40
68011;DHT22;54794;48.348;7.878;2022-10-31T23:19:24;16.40;74.40
68011;DHT22;54794;48.348;7.878;2022-10-31T23:21:57;16.40;74.30
68011;DHT22;54794;48.348;7.878;2022-10-31T23:24:40;16.40;74.40
68011;DHT22;54794;48.348;7.878;2022-10-31T23:27:20;16.40;74.40
68011;DHT22;54794;48.348;7.878;2022-10-31T23:32:29;16.40;74.40
68011;DHT22;54794;48.348;7.878;2022-10-31T23:35:04;16.40;74.40
68011;DHT22;54794;48.348;7.878;2022-10-31T23:37:37;16.40;74.50
68011;DHT22;54794;48.348;7.878;2022-10-31T23:40:05;16.40;74.50
68011;DHT22;54794;48.348;7.878;2022-10-31T23:42:34;16.40;74.60
68011;DHT22;54794;48.348;7.878;2022-10-31T23:45:01;16.40;74.50
68011;DHT22;54794;48.348;7.878;2022-10-31T23:47:27;16.40;74.50
68011;DHT22;54794;48.348;7.878;2022-10-31T23:49:54;16.40;74.50
68011;DHT22;54794;48.348;7.878;2022-10-31T23:52:21;16.40;74.60
68011;DHT22;54794;48.348;7.878;2022-10-31T23:54:48;16.40;74.60
68011;DHT22;54794;48.348;7.878;2022-10-31T23:57:15;16.50;74.60
68011;DHT22;54794;48.348;7.878;2022-10-31T23:59:43;16.50;74.60
